Time;durP1;ratioP1;P1;durP2;ratioP2;P2;SDS_P1;SDS_P2;PMS_P1;PMS_P2;Temp;Humidity;BMP_temperature;BMP_pressure;BME280_temperature;BME280_humidity;BME280_pressure;Samples;Min_cycle;Max_cycle;Signal;HPM_P1;HPM_P2
2022/09/24 00:01:43;;;;;;;6.95;6.30;;;;;;;11.07;93.80;98337.94;4153193;28;20818;-50
2022/09/24 00:03:53;;;;;;;8.07;6.05;;;;;;;11.08;93.74;98329.50;4153277;28;20213;-49
2022/09/24 00:05:54;;;;;;;7.75;5.03;;;;;;;11.11;94.18;98331.69;4145593;28;20556;-51
2022/09/24 00:07:56;;;;;;;7.38;5.40;;;;;;;11.12;94.27;98329.78;4167785;28;20296;-50
2022/09/24 00:09:58;;;;;;;6.28;5.78;;;;;;;11.11;93.85;98334.44;4157038;28;20805;-50
2022/09/24 00:12:02;;;;;;;8.48;5.53;;;;;;;11.16;94.22;98331.75;4154530;28;20340;-50
2022/09/24 00:14:05;;;;;;;6.35;5.75;;;;;;;11.12;94.33;98336.09;4151328;28;20207;-50
2022/09/24 00:16:10;;;;;;;7.50;6.80;;;;;;;11.08;94.12;98328.66;4169625;28;20231;-50
2022/09/24 00:18:13;;;;;;;6.30;5.70;;;;;;;11.08;94.38;98324.00;4165643;28;20259;-50
2022/09/24 00:20:15;;;;;;;6.47;5.78;;;;;;;11.07;94.15;98325.09;4149732;28;20320;-50
2022/09/24 00:22:16;;;;;;;6.45;5.97;;;;;;;11.05;94.12;98324.50;4149459;28;20205;-49
2022/09/24 00:26:50;;;;;;;7.07;5.93;;;;;;;11.02;93.78;98325.03;4147283;28;20193;-49
2022/09/24 00:28:52;;;;;;;6.32;5.70;;;;;;;11.00;93.63;98323.63;4137175;28;20649;-50
2022/09/24 00:30:56;;;;;;;6.60;6.00;;;;;;;10.97;93.61;98327.72;4151191;28;20777;-50
2022/09/24 00:32:58;;;;;;;6.25;5.72;;;;;;;10.88;93.51;98323.78;4161848;28;20304;-49
2022/09/24 00:35:00;;;;;;;9.80;6.28;;;;;;;10.77;93.43;98319.28;4151759;28;20219;-50
2022/09/24 00:37:01;;;;;;;5.80;5.28;;;;;;;10.79;93.72;98319.84;4148544;28;20224;-49
2022/09/24 00:39:04;;;;;;;12.50;5.20;;;;;;;10.77;93.49;98303.94;4161509;28;20196;-49
2022/09/24 00:41:06;;;;;;;5.78;5.35;;;;;;;10.76;93.21;98303.09;4167125;28;20324;-50
2022/09/24 00:43:24;;;;;;;6.25;5.75;;;;;;;10.77;93.55;98303.94;4154011;28;20296;-50
2022/09/24 00:45:28;;;;;;;6.35;5.75;;;;;;;10.74;93.50;98307.19;4167278;28;20326;-49
2022/09/24 00:47:48;;;;;;;8.73;4.93;;;;;;;10.71;93.39;98307.69;4150864;28;20251;-50
2022/09/24 00:49:50;;;;;;;6.20;5.18;;;;;;;10.65;93.35;98305.97;4165034;28;20343;-49
2022/09/24 00:51:52;;;;;;;4.55;4.18;;;;;;;10.63;93.36;98306.25;4164319;28;20215;-50
2022/09/24 00:53:56;;;;;;;4.82;4.47;;;;;;;10.60;93.52;98298.53;4146831;28;20222;-50
2022/09/24 00:55:59;;;;;;;5.88;4.75;;;;;;;10.56;93.32;98302.06;4157954;28;20256;-49
2022/09/24 00:58:04;;;;;;;6.25;4.07;;;;;;;10.58;93.08;98294.41;4148076;28;20248;-49
2022/09/24 01:00:09;;;;;;;4.70;4.30;;;;;;;10.54;93.14;98296.03;4140362;28;20236;-49
2022/09/24 01:02:11;;;;;;;5.57;5.18;;;;;;;10.45;93.52;98297.53;4145335;28;21040;-49
2022/09/24 01:04:16;;;;;;;4.93;4.53;;;;;;;10.40;93.79;98297.44;4147696;28;20255;-50
2022/09/24 01:06:18;;;;;;;5.30;4.18;;;;;;;10.42;93.81;98300.78;4162726;28;20718;-50
2022/09/24 01:08:20;;;;;;;4.38;4.07;;;;;;;10.40;93.74;98291.97;4163154;28;20287;-50
2022/09/24 01:10:50;;;;;;;4.95;4.45;;;;;;;10.38;93.58;98294.16;4152219;28;20338;-50
2022/09/24 01:12:58;;;;;;;3.97;3.67;;;;;;;10.36;93.55;98285.38;4117321;28;20292;-49
2022/09/24 01:15:05;;;;;;;4.07;3.67;;;;;;;10.37;93.51;98284.31;4151369;28;20298;-50
2022/09/24 01:17:19;;;;;;;5.40;3.45;;;;;;;10.26;93.03;98274.31;4156327;28;20771;-49
2022/09/24 01:19:43;;;;;;;3.35;3.15;;;;;;;10.23;93.25;98277.56;4147195;28;20307;-49
2022/09/24 01:21:54;;;;;;;4.50;3.75;;;;;;;10.17;93.21;98278.56;4133931;28;21501;-49
2022/09/24 01:24:08;;;;;;;4.28;3.88;;;;;;;10.15;93.39;98278.00;4142635;28;20240;-50
2022/09/24 01:26:21;;;;;;;5.50;4.32;;;;;;;10.09;93.23;98273.53;4156270;28;20771;-49
2022/09/24 01:31:52;;;;;;;3.90;3.60;;;;;;;10.06;93.22;98269.41;4139886;28;20208;-49
2022/09/24 01:33:55;;;;;;;4.95;3.55;;;;;;;10.04;93.05;98259.81;4130422;28;20260;-49
2022/09/24 01:36:00;;;;;;;3.60;3.28;;;;;;;10.02;92.74;98260.00;4166946;28;20212;-49
2022/09/24 01:38:27;;;;;;;4.53;4.13;;;;;;;9.95;92.81;98253.91;4166259;28;20500;-49
2022/09/24 01:40:29;;;;;;;4.65;4.30;;;;;;;9.95;92.61;98247.63;4137715;28;20346;-49
2022/09/24 01:42:32;;;;;;;5.10;4.57;;;;;;;9.96;92.75;98257.47;4145431;28;20344;-50
2022/09/24 01:44:34;;;;;;;12.07;3.85;;;;;;;9.95;92.24;98259.38;4153587;28;20219;-49
2022/09/24 01:46:40;;;;;;;5.00;4.53;;;;;;;9.89;92.38;98251.38;4162243;28;20291;-49
2022/09/24 01:48:42;;;;;;;5.25;4.22;;;;;;;9.83;92.47;98257.84;4147207;28;20307;-50
2022/09/24 01:51:27;;;;;;;10.90;3.75;;;;;;;9.77;92.71;98254.22;4132892;28;20975;-49
2022/09/24 01:53:31;;;;;;;4.15;3.75;;;;;;;9.77;92.76;98254.22;4135584;28;20205;-49
2022/09/24 01:55:38;;;;;;;4.70;4.30;;;;;;;9.70;92.67;98253.56;4146102;28;22782;-50
2022/09/24 01:57:49;;;;;;;12.77;6.60;;;;;;;9.64;92.63;98256.47;4150000;28;20232;-49
2022/09/24 01:59:58;;;;;;;11.20;6.90;;;;;;;9.59;92.56;98256.38;4149369;28;20220;-50
2022/09/24 02:02:06;;;;;;;11.98;7.60;;;;;;;9.60;92.74;98258.03;4154347;28;20590;-49
2022/09/24 02:04:12;;;;;;;7.22;6.43;;;;;;;9.64;92.83;98256.47;4149639;28;20604;-49
2022/09/24 02:06:25;;;;;;;6.75;6.13;;;;;;;9.62;92.70;98250.44;4146596;28;20374;-49
2022/09/24 02:08:37;;;;;;;4.75;4.38;;;;;;;9.66;92.69;98251.56;4148158;28;20196;-49
2022/09/24 02:11:20;;;;;;;13.68;6.55;;;;;;;9.61;92.12;98248.78;4133156;28;20243;-48
2022/09/24 02:13:24;;;;;;;7.82;5.90;;;;;;;9.57;92.27;98250.34;4144193;28;20242;-50
2022/09/24 02:15:31;;;;;;;6.68;5.97;;;;;;;9.50;92.51;98241.50;4156870;28;20208;-50
2022/09/24 02:17:35;;;;;;;5.53;5.00;;;;;;;9.52;92.52;98244.78;4162783;28;20236;-50
2022/09/24 02:19:39;;;;;;;7.63;6.45;;;;;;;9.53;92.22;98241.81;4150276;28;20243;-50
2022/09/24 02:21:41;;;;;;;5.72;5.00;;;;;;;9.51;92.32;98243.97;4147234;28;20219;-49
2022/09/24 02:23:48;;;;;;;5.32;4.80;;;;;;;9.55;92.46;98238.84;4147577;28;20666;-49
2022/09/24 02:25:54;;;;;;;5.28;4.75;;;;;;;9.55;92.67;98236.13;4147527;28;20204;-49
2022/09/24 02:27:56;;;;;;;3.85;3.47;;;;;;;9.49;92.67;98228.91;4141853;28;20643;-50
2022/09/24 02:29:58;;;;;;;4.53;3.90;;;;;;;9.43;92.57;98227.19;4148895;28;20682;-49
2022/09/24 02:32:01;;;;;;;3.83;3.42;;;;;;;9.36;92.71;98218.34;4169209;28;20208;-49
2022/09/24 02:34:19;;;;;;;6.55;4.30;;;;;;;9.32;92.63;98222.63;4152064;28;20308;-50
2022/09/24 02:36:23;;;;;;;3.95;3.28;;;;;;;9.37;92.96;98220.00;4140701;28;20827;-49
2022/09/24 02:38:25;;;;;;;6.88;3.85;;;;;;;9.37;93.02;98218.09;4152623;28;20217;-50
2022/09/24 02:40:27;;;;;;;4.35;3.95;;;;;;;9.31;93.04;98218.25;4154001;28;20225;-49
2022/09/24 02:42:30;;;;;;;4.60;4.25;;;;;;;9.25;92.85;98216.50;4154996;28;20216;-50
2022/09/24 02:44:32;;;;;;;4.53;4.13;;;;;;;9.24;93.36;98217.59;4133727;28;20750;-52
2022/09/24 02:46:34;;;;;;;4.72;4.28;;;;;;;9.22;93.13;98211.56;4153837;28;20204;-50
2022/09/24 02:48:36;;;;;;;4.78;3.88;;;;;;;9.15;93.21;98210.91;4148195;28;20216;-49
2022/09/24 02:50:38;;;;;;;4.85;4.43;;;;;;;9.14;93.36;98210.06;4148175;28;20225;-49
2022/09/24 02:52:39;;;;;;;6.55;4.32;;;;;;;9.15;93.20;98208.19;4165881;28;20204;-49
2022/09/24 02:54:41;;;;;;;4.00;3.67;;;;;;;9.08;93.40;98215.72;4151786;28;20680;-50
2022/09/24 02:56:43;;;;;;;4.20;3.90;;;;;;;9.06;93.59;98206.91;4152956;28;20237;-49
2022/09/24 02:58:44;;;;;;;4.47;4.07;;;;;;;9.07;93.36;98216.75;4150805;28;20220;-50
2022/09/24 03:00:46;;;;;;;13.90;4.47;;;;;;;9.09;93.14;98206.44;4151050;28;20324;-49
2022/09/24 03:02:48;;;;;;;6.43;5.10;;;;;;;9.04;93.29;98207.19;4147541;28;20221;-50
2022/09/24 03:04:50;;;;;;;4.68;4.30;;;;;;;9.04;92.89;98209.06;4151420;28;20219;-49
2022/09/24 03:06:52;;;;;;;4.60;4.15;;;;;;;9.02;93.31;98214.78;4152888;28;20279;-50
2022/09/24 03:08:54;;;;;;;5.65;4.45;;;;;;;9.08;92.98;98215.72;4159515;28;20692;-49
2022/09/24 03:10:55;;;;;;;4.78;4.35;;;;;;;9.04;93.36;98212.66;4150845;28;20236;-50
2022/09/24 03:12:57;;;;;;;4.47;4.10;;;;;;;9.07;93.13;98217.59;4148965;28;20625;-49
2022/09/24 03:14:58;;;;;;;5.15;4.20;;;;;;;9.12;93.18;98205.94;4147819;28;20208;-49
2022/09/24 03:17:00;;;;;;;6.43;5.93;;;;;;;9.06;93.03;98212.38;4154927;28;20225;-50
2022/09/24 03:19:02;;;;;;;5.13;4.63;;;;;;;9.07;93.03;98205.84;4164761;28;21105;-49
2022/09/24 03:21:07;;;;;;;4.28;3.88;;;;;;;9.05;92.94;98202.53;4147709;28;20208;-49
2022/09/24 03:23:09;;;;;;;5.32;4.82;;;;;;;9.08;92.60;98207.53;4165513;28;20245;-49
2022/09/24 03:25:10;;;;;;;5.05;4.70;;;;;;;9.05;92.59;98208.00;4149549;28;20279;-48
2022/09/24 03:27:12;;;;;;;4.72;4.22;;;;;;;9.00;92.60;98208.75;4151157;28;20706;-49
2022/09/24 03:29:14;;;;;;;4.05;3.67;;;;;;;9.04;92.60;98203.63;4154365;28;20266;-49
2022/09/24 03:31:16;;;;;;;3.83;3.47;;;;;;;8.98;92.97;98205.44;4153136;28;20255;-49
2022/09/24 03:33:17;;;;;;;3.95;3.67;;;;;;;8.97;93.04;98208.41;4164395;28;20216;-50
2022/09/24 03:35:20;;;;;;;5.45;4.47;;;;;;;9.03;92.88;98212.88;4163181;28;20208;-50
2022/09/24 03:37:21;;;;;;;5.60;5.00;;;;;;;9.00;92.97;98207.91;4154702;28;20221;-50
2022/09/24 03:39:23;;;;;;;6.05;4.53;;;;;;;8.96;93.18;98207.56;4151259;28;20302;-49
2022/09/24 03:41:29;;;;;;;4.93;4.40;;;;;;;8.94;93.47;98204.28;4150166;28;20244;-48
2022/09/24 03:43:31;;;;;;;5.32;4.63;;;;;;;8.90;93.36;98202.28;4152293;28;20296;-49
2022/09/24 03:45:33;;;;;;;5.63;4.13;;;;;;;8.91;93.48;98203.94;4137978;28;20284;-49
2022/09/24 03:47:34;;;;;;;5.43;4.65;;;;;;;8.95;93.83;98203.19;4148042;28;20201;-49
2022/09/24 03:49:36;;;;;;;4.65;4.15;;;;;;;8.96;93.68;98199.38;4150309;28;20275;-49
2022/09/24 03:51:38;;;;;;;4.22;3.83;;;;;;;8.99;93.61;98195.34;4155821;28;20208;-50
2022/09/24 03:53:40;;;;;;;3.97;3.67;;;;;;;8.96;93.73;98199.38;4167983;28;20200;-50
2022/09/24 03:55:46;;;;;;;4.07;3.75;;;;;;;9.02;93.99;98195.66;4144851;28;20209;-50
2022/09/24 03:57:48;;;;;;;4.30;3.95;;;;;;;8.97;94.07;98192.88;4152007;28;20229;-48
2022/09/24 03:59:51;;;;;;;5.15;4.75;;;;;;;9.00;93.74;98186.91;4148712;28;20223;-49
2022/09/24 04:01:54;;;;;;;4.97;4.05;;;;;;;8.99;93.86;98198.06;4147676;28;20200;-50
2022/09/24 04:03:55;;;;;;;4.68;3.72;;;;;;;8.97;93.88;98187.44;4148178;28;20202;-50
2022/09/24 04:05:57;;;;;;;4.90;4.13;;;;;;;8.95;94.04;98192.28;4163928;28;20208;-49
2022/09/24 04:07:59;;;;;;;5.13;4.65;;;;;;;8.93;93.81;98191.72;4152822;28;20201;-50
2022/09/24 04:10:01;;;;;;;4.18;3.78;;;;;;;8.97;93.94;98190.16;4136870;28;20225;-49
2022/09/24 04:12:04;;;;;;;3.72;3.42;;;;;;;8.95;93.74;98191.47;4157748;28;20212;-49
2022/09/24 04:14:06;;;;;;;3.35;3.15;;;;;;;8.92;93.87;98181.88;4156696;28;20663;-49
2022/09/24 04:16:07;;;;;;;4.22;3.83;;;;;;;8.96;93.62;98182.22;4152507;28;20239;-49
2022/09/24 04:18:10;;;;;;;4.25;3.88;;;;;;;8.93;93.72;98175.34;4151654;28;20224;-49
2022/09/24 04:20:12;;;;;;;4.20;3.90;;;;;;;8.94;93.68;98170.72;4151739;28;20319;-49
2022/09/24 04:22:13;;;;;;;3.88;3.58;;;;;;;8.90;93.86;98164.09;4157603;28;20331;-50
2022/09/24 04:24:15;;;;;;;3.92;3.63;;;;;;;8.93;94.13;98158.13;4160469;28;20204;-50
2022/09/24 04:26:17;;;;;;;4.30;3.90;;;;;;;8.79;94.36;98152.19;4152215;28;20569;-51
2022/09/24 04:28:18;;;;;;;3.80;3.58;;;;;;;8.87;94.38;98150.94;4140536;28;20201;-50
2022/09/24 04:30:21;;;;;;;4.47;3.80;;;;;;;8.82;94.73;98161.78;4164619;28;20255;-50
2022/09/24 04:32:22;;;;;;;15.82;4.90;;;;;;;8.78;94.52;98171.53;4147971;28;20204;-51
2022/09/24 04:34:24;;;;;;;3.40;3.10;;;;;;;8.81;94.82;98168.31;4150586;28;21105;-50
2022/09/24 04:36:26;;;;;;;3.92;3.63;;;;;;;8.84;94.65;98165.09;4150731;28;20215;-51
2022/09/24 04:38:27;;;;;;;3.35;3.05;;;;;;;8.87;94.81;98159.13;4147810;28;20603;-51
2022/09/24 04:40:30;;;;;;;6.10;3.33;;;;;;;8.95;94.54;98161.47;4171334;28;20224;-50
2022/09/24 04:42:32;;;;;;;3.92;3.55;;;;;;;8.98;94.91;98160.94;4149803;28;20236;-51
2022/09/24 04:44:33;;;;;;;4.65;3.88;;;;;;;8.94;94.51;98159.81;4164328;28;20291;-50
2022/09/24 04:46:35;;;;;;;4.57;4.22;;;;;;;9.01;94.77;98160.47;4148973;28;21189;-51
2022/09/24 04:48:37;;;;;;;4.05;3.75;;;;;;;9.07;94.97;98164.91;4154160;28;20216;-50
2022/09/24 04:50:38;;;;;;;4.57;4.22;;;;;;;8.98;95.20;98158.22;4142421;28;20323;-50
2022/09/24 04:52:47;;;;;;;6.55;4.05;;;;;;;8.94;95.47;98157.09;4158999;28;20212;-50
2022/09/24 04:54:48;;;;;;;4.95;3.67;;;;;;;8.91;95.23;98172.03;4151893;28;20206;-50
2022/09/24 04:56:50;;;;;;;3.85;3.55;;;;;;;8.93;95.04;98164.44;4152582;28;20596;-49
2022/09/24 04:58:52;;;;;;;4.30;3.90;;;;;;;8.94;95.10;98168.00;4150605;28;20219;-49
2022/09/24 05:00:54;;;;;;;4.13;3.78;;;;;;;8.98;94.99;98166.41;4153181;28;20224;-49
2022/09/24 05:03:02;;;;;;;4.43;3.40;;;;;;;9.01;94.88;98163.19;4149825;28;20287;-51
2022/09/24 05:05:04;;;;;;;4.38;3.15;;;;;;;9.04;95.16;98159.94;4155609;28;20209;-49
2022/09/24 05:07:07;;;;;;;4.95;3.85;;;;;;;9.02;95.23;98156.66;4149319;28;20205;-52
2022/09/24 05:09:09;;;;;;;5.45;3.65;;;;;;;9.05;95.33;98153.41;4148691;28;20707;-50
2022/09/24 05:11:13;;;;;;;4.18;3.88;;;;;;;9.04;95.28;98162.69;4149900;28;20213;-49
2022/09/24 05:13:15;;;;;;;3.83;3.53;;;;;;;9.06;95.53;98166.81;4157198;28;20295;-53
2022/09/24 05:15:18;;;;;;;4.22;3.45;;;;;;;9.04;95.42;98168.97;4145986;28;20296;-50
2022/09/24 05:17:20;;;;;;;4.15;3.30;;;;;;;9.03;95.48;98163.75;4145347;28;20308;-52
2022/09/24 05:19:22;;;;;;;3.13;2.92;;;;;;;9.04;95.20;98159.94;4137636;28;20209;-50
2022/09/24 05:21:26;;;;;;;3.70;3.40;;;;;;;9.02;95.24;98162.13;4152123;28;20225;-50
2022/09/24 05:23:28;;;;;;;4.40;4.10;;;;;;;8.96;95.24;98163.91;4153349;28;20311;-50
2022/09/24 05:25:30;;;;;;;4.53;3.65;;;;;;;9.00;95.38;98176.00;4148709;28;20630;-50
2022/09/24 05:27:32;;;;;;;4.20;3.80;;;;;;;9.04;95.00;98181.78;4153800;28;20216;-50
2022/09/24 05:29:42;;;;;;;3.97;3.60;;;;;;;9.02;95.22;98179.28;4140579;28;20619;-51
2022/09/24 05:31:43;;;;;;;5.35;4.82;;;;;;;9.09;95.28;98190.06;4154491;28;20211;-49
2022/09/24 05:33:45;;;;;;;3.42;3.13;;;;;;;9.04;95.39;98181.78;4152235;28;20256;-50
2022/09/24 05:35:56;;;;;;;3.72;3.42;;;;;;;9.04;95.01;98181.78;4152188;28;20577;-49
2022/09/24 05:37:57;;;;;;;3.58;3.28;;;;;;;9.00;95.45;98175.16;4162985;28;20230;-50
2022/09/24 05:40:46;;;;;;;5.65;3.88;;;;;;;9.08;95.43;98178.31;4148194;28;20340;-50
2022/09/24 05:42:24;;;;;;;4.15;3.83;;;;;;;9.06;95.74;98175.00;4148866;28;20295;-50
2022/09/24 05:44:25;;;;;;;4.82;4.43;;;;;;;9.04;95.91;98176.31;4134361;28;20209;-48
2022/09/24 05:46:28;;;;;;;4.50;4.20;;;;;;;9.02;96.45;98167.56;4148978;28;20997;-53
2022/09/24 05:48:33;;;;;;;3.70;3.40;;;;;;;9.03;96.13;98180.13;4164049;28;20504;-51
2022/09/24 05:50:34;;;;;;;5.32;4.07;;;;;;;9.02;96.12;98175.75;4155528;28;20234;-50
2022/09/24 05:52:37;;;;;;;4.85;4.45;;;;;;;9.07;96.68;98175.81;4152672;28;20665;-50
2022/09/24 05:54:39;;;;;;;5.07;4.63;;;;;;;9.08;96.22;98177.50;4162086;28;20292;-50
2022/09/24 05:56:41;;;;;;;5.00;4.60;;;;;;;9.22;96.55;98174.16;4151110;28;20207;-49
2022/09/24 05:58:43;;;;;;;4.68;4.22;;;;;;;9.00;97.27;98175.16;4157180;28;20234;-49
2022/09/24 06:00:45;;;;;;;8.57;4.43;;;;;;;9.06;97.14;98165.97;4152726;28;20323;-49
2022/09/24 06:02:46;;;;;;;5.45;4.95;;;;;;;9.04;96.95;98165.41;4155467;28;20232;-49
2022/09/24 06:04:48;;;;;;;10.48;4.65;;;;;;;9.06;96.79;98171.44;4151733;28;20310;-53
2022/09/24 06:06:51;;;;;;;4.72;4.25;;;;;;;9.07;96.62;98182.13;4154563;28;20209;-50
2022/09/24 06:08:53;;;;;;;5.20;3.97;;;;;;;9.06;96.94;98190.53;4151951;28;20208;-49
2022/09/24 06:11:05;;;;;;;4.63;4.30;;;;;;;9.14;97.14;98190.16;4168150;28;20579;-49
2022/09/24 06:13:10;;;;;;;5.55;5.05;;;;;;;9.15;97.07;98191.81;4165762;28;20538;-50
2022/09/24 06:15:12;;;;;;;8.35;4.25;;;;;;;9.26;96.81;98201.78;4149779;28;21939;-49
2022/09/24 06:17:14;;;;;;;5.05;4.50;;;;;;;9.35;96.61;98195.66;4151956;28;20691;-50
2022/09/24 06:19:16;;;;;;;4.50;4.20;;;;;;;9.44;96.53;98196.06;4154104;28;20204;-50
2022/09/24 06:21:17;;;;;;;5.00;4.60;;;;;;;9.42;96.45;98196.31;4163601;28;20201;-50
2022/09/24 06:23:19;;;;;;;5.25;3.97;;;;;;;9.48;96.66;98189.03;4151924;28;20204;-50
2022/09/24 06:25:21;;;;;;;5.03;4.63;;;;;;;9.53;97.14;98198.13;4158705;28;20204;-50
2022/09/24 06:27:23;;;;;;;7.47;5.38;;;;;;;9.49;97.95;98193.41;4137687;28;20210;-50
2022/09/24 06:29:24;;;;;;;4.55;4.15;;;;;;;9.61;97.75;98183.22;4151458;28;21002;-50
2022/09/24 06:31:26;;;;;;;5.53;4.57;;;;;;;9.68;97.88;98183.88;4151740;28;20288;-50
2022/09/24 06:33:29;;;;;;;5.43;4.72;;;;;;;9.76;99.33;98186.16;4136709;28;20238;-50
2022/09/24 06:35:34;;;;;;;4.75;4.38;;;;;;;9.88;99.19;98184.13;4153171;28;20746;-50
2022/09/24 06:37:36;;;;;;;5.00;3.78;;;;;;;9.90;98.51;98184.69;4152391;28;20231;-50
2022/09/24 06:39:38;;;;;;;5.30;4.90;;;;;;;9.83;98.88;98186.78;4157070;28;20224;-53
2022/09/24 06:41:40;;;;;;;4.78;4.18;;;;;;;9.93;98.22;98178.72;4145670;28;20247;-49
2022/09/24 06:43:41;;;;;;;11.10;4.30;;;;;;;9.82;98.51;98176.94;4152160;28;20208;-49
2022/09/24 06:45:43;;;;;;;4.22;3.85;;;;;;;9.67;98.74;98182.22;4158808;28;20200;-50
2022/09/24 06:47:57;;;;;;;7.45;3.85;;;;;;;9.70;98.47;98176.22;4156308;28;20212;-49
2022/09/24 06:49:59;;;;;;;5.75;3.22;;;;;;;9.56;99.97;98175.75;4161113;28;20224;-50
2022/09/24 06:52:01;;;;;;;3.72;3.42;;;;;;;9.50;100.00;98184.13;4155950;28;20260;-50
2022/09/24 06:54:03;;;;;;;7.03;5.07;;;;;;;9.49;100.00;98196.16;4150773;28;20210;-51
2022/09/24 06:56:05;;;;;;;4.80;4.40;;;;;;;9.52;100.00;98190.16;4152419;28;20214;-51
2022/09/24 06:58:09;;;;;;;7.97;5.00;;;;;;;9.57;100.00;98187.53;4157964;28;20366;-50
2022/09/24 07:00:12;;;;;;;6.15;3.92;;;;;;;9.74;100.00;98191.84;4154426;28;20228;-50
2022/09/24 07:02:14;;;;;;;5.53;4.47;;;;;;;9.66;100.00;98191.47;4164684;28;20213;-51
2022/09/24 07:04:16;;;;;;;5.45;4.55;;;;;;;9.75;100.00;98201.69;4152759;28;20293;-50
2022/09/24 07:06:18;;;;;;;5.22;4.75;;;;;;;9.85;100.00;98198.28;4150728;28;20201;-52
2022/09/24 07:08:20;;;;;;;5.47;4.97;;;;;;;9.95;100.00;98192.97;4148815;28;20204;-50
2022/09/24 07:10:24;;;;;;;4.47;4.03;;;;;;;9.86;100.00;98192.56;4160353;28;20235;-52
2022/09/24 07:12:25;;;;;;;11.70;3.35;;;;;;;10.01;99.61;98198.22;4161970;28;20311;-50
2022/09/24 07:14:27;;;;;;;4.10;3.80;;;;;;;9.90;100.00;98204.66;4156538;28;20232;-51
2022/09/24 07:16:29;;;;;;;4.25;3.92;;;;;;;10.05;99.87;98206.78;4152828;28;20215;-53
2022/09/24 07:18:30;;;;;;;3.88;3.58;;;;;;;9.95;100.00;98203.91;4147933;28;20229;-52
2022/09/24 07:20:35;;;;;;;4.68;4.35;;;;;;;9.89;100.00;98202.97;4148079;28;20224;-50
2022/09/24 07:22:39;;;;;;;7.78;3.88;;;;;;;9.96;100.00;98202.81;4138932;28;20205;-52
2022/09/24 07:24:40;;;;;;;7.13;5.70;;;;;;;10.19;100.00;98202.56;4164250;28;20292;-50
2022/09/24 07:26:42;;;;;;;3.67;3.38;;;;;;;10.27;100.00;98210.34;4149484;28;20201;-50
2022/09/24 07:28:44;;;;;;;7.25;6.43;;;;;;;10.48;100.00;98212.22;4156384;28;20305;-50
2022/09/24 07:30:45;;;;;;;5.68;5.03;;;;;;;10.72;99.76;98213.56;4169842;28;20375;-50
2022/09/24 07:32:49;;;;;;;8.30;5.07;;;;;;;10.79;99.53;98220.50;4152861;28;20296;-49
2022/09/24 07:34:53;;;;;;;6.18;5.60;;;;;;;10.84;99.59;98207.69;4137754;28;20241;-51
2022/09/24 07:36:55;;;;;;;9.20;5.20;;;;;;;10.94;98.62;98212.44;4158986;28;20372;-50
2022/09/24 07:38:57;;;;;;;5.88;5.30;;;;;;;11.04;97.61;98212.53;4154576;28;21244;-50
2022/09/24 07:40:59;;;;;;;5.93;4.90;;;;;;;10.93;99.32;98206.13;4153176;28;20231;-49
2022/09/24 07:43:00;;;;;;;5.72;5.15;;;;;;;11.05;98.94;98211.44;4160659;28;20213;-50
2022/09/24 07:45:02;;;;;;;4.95;4.55;;;;;;;11.14;98.62;98205.22;4169101;28;20200;-50
2022/09/24 07:47:05;;;;;;;4.43;4.03;;;;;;;11.08;98.77;98205.44;4152252;28;21074;-50
2022/09/24 07:49:06;;;;;;;5.65;3.47;;;;;;;11.18;97.99;98214.56;4139923;28;20233;-50
2022/09/24 07:51:09;;;;;;;5.57;4.00;;;;;;;11.21;97.80;98219.53;4149104;28;20300;-50
2022/09/24 07:53:11;;;;;;;4.20;3.80;;;;;;;11.22;98.79;98226.66;4158499;28;20215;-53
2022/09/24 07:55:13;;;;;;;4.72;4.30;;;;;;;11.18;99.50;98214.56;4169395;28;20298;-50
2022/09/24 07:57:15;;;;;;;3.35;3.10;;;;;;;11.21;98.67;98208.56;4159880;28;20227;-51
2022/09/24 07:59:19;;;;;;;4.40;4.10;;;;;;;11.18;99.20;98227.44;4151752;28;20225;-50
2022/09/24 08:01:21;;;;;;;4.28;3.97;;;;;;;11.28;98.65;98231.09;4168446;28;20295;-50
2022/09/24 08:03:22;;;;;;;4.30;3.88;;;;;;;11.28;99.73;98213.81;4162478;28;20220;-49
2022/09/24 08:05:24;;;;;;;8.48;4.18;;;;;;;11.28;99.46;98224.78;4158754;28;20663;-50
2022/09/24 08:07:26;;;;;;;4.20;3.83;;;;;;;11.31;99.02;98219.59;4164952;28;20798;-50
2022/09/24 08:09:27;;;;;;;3.17;2.88;;;;;;;11.42;98.36;98221.34;4158288;28;20319;-49
2022/09/24 08:11:31;;;;;;;4.53;4.20;;;;;;;11.48;98.55;98222.19;4168804;28;20225;-49
2022/09/24 08:13:33;;;;;;;5.63;2.88;;;;;;;11.55;98.08;98226.38;4159514;28;20232;-49
2022/09/24 08:15:35;;;;;;;3.80;3.50;;;;;;;11.71;97.68;98233.63;4157704;28;20802;-50
2022/09/24 08:17:37;;;;;;;4.78;4.45;;;;;;;11.82;97.57;98238.09;4171118;28;20199;-50
2022/09/24 08:19:42;;;;;;;6.70;4.65;;;;;;;11.84;97.46;98230.41;4153595;28;20278;-50
2022/09/24 08:21:43;;;;;;;4.10;3.80;;;;;;;11.90;97.71;98232.09;4156337;28;20225;-49
2022/09/24 08:23:45;;;;;;;7.78;4.88;;;;;;;11.83;97.65;98228.78;4161496;28;20208;-50
2022/09/24 08:25:47;;;;;;;5.72;5.18;;;;;;;12.04;97.10;98236.00;4152608;28;20305;-49
2022/09/24 08:27:49;;;;;;;5.57;5.18;;;;;;;12.10;96.71;98225.91;4155187;28;20205;-50
2022/09/24 08:29:51;;;;;;;5.85;4.65;;;;;;;12.18;95.93;98228.94;4157351;28;20344;-50
2022/09/24 08:31:52;;;;;;;8.68;5.60;;;;;;;12.22;95.12;98223.75;4154031;28;20330;-49
2022/09/24 08:33:54;;;;;;;5.75;5.25;;;;;;;12.30;94.62;98224.06;4152926;28;20267;-50
2022/09/24 08:35:58;;;;;;;8.07;4.38;;;;;;;12.25;94.95;98226.78;4154641;28;20210;-49
2022/09/24 08:38:00;;;;;;;4.25;3.85;;;;;;;12.26;94.79;98222.97;4154289;28;20288;-49
2022/09/24 08:40:02;;;;;;;5.00;4.53;;;;;;;12.21;95.86;98225.69;4159116;28;20226;-49
2022/09/24 08:42:06;;;;;;;5.25;4.05;;;;;;;12.41;95.75;98223.03;4155513;28;20204;-50
2022/09/24 08:44:12;;;;;;;5.22;4.18;;;;;;;12.39;94.76;98225.22;4152568;28;20205;-49
2022/09/24 08:48:41;;;;;;;3.78;3.05;;;;;;;12.52;94.34;98232.97;4152829;28;20227;-50
2022/09/24 08:50:56;;;;;;;7.05;3.47;;;;;;;12.57;94.31;98234.88;4166517;28;20224;-50
2022/09/24 08:52:58;;;;;;;3.95;3.65;;;;;;;12.54;94.56;98235.41;4150983;28;20615;-50
2022/09/24 08:55:05;;;;;;;4.03;3.72;;;;;;;12.55;94.64;98232.41;4153171;28;20296;-49
2022/09/24 08:57:11;;;;;;;4.35;3.78;;;;;;;12.51;94.36;98231.28;4167315;28;20694;-49
2022/09/24 08:59:31;;;;;;;4.05;3.60;;;;;;;12.47;94.52;98246.66;4166600;28;20606;-50
2022/09/24 09:02:26;;;;;;;4.05;3.40;;;;;;;12.41;94.02;98239.50;4160123;28;20240;-50
2022/09/24 09:04:51;;;;;;;5.53;4.07;;;;;;;12.42;94.60;98238.41;4120729;28;20215;-50
2022/09/24 09:07:25;;;;;;;4.25;3.92;;;;;;;12.44;94.87;98230.72;4161023;28;20287;-49
2022/09/24 09:09:43;;;;;;;7.93;4.07;;;;;;;12.55;94.75;98224.16;4162990;28;21080;-49
2022/09/24 09:11:58;;;;;;;4.15;3.85;;;;;;;12.69;94.66;98230.81;4153169;28;20736;-50
2022/09/24 09:14:17;;;;;;;2.80;2.60;;;;;;;12.75;93.64;98221.47;4156367;28;20199;-49
2022/09/24 09:16:25;;;;;;;4.07;3.30;;;;;;;12.81;93.80;98220.41;4170460;28;20911;-50
2022/09/24 09:18:55;;;;;;;3.20;2.90;;;;;;;12.91;94.06;98220.41;4136737;28;20221;-50
2022/09/24 09:21:55;;;;;;;3.90;2.15;;;;;;;13.00;93.93;98221.56;4152147;28;20221;-50
2022/09/24 09:23:58;;;;;;;2.88;2.63;;;;;;;13.13;94.54;98228.44;4139305;28;20754;-50
2022/09/24 09:26:00;;;;;;;2.88;2.67;;;;;;;13.18;93.93;98231.19;4169374;28;20735;-48
2022/09/24 09:28:13;;;;;;;3.28;2.78;;;;;;;13.32;93.34;98224.06;4160089;28;20694;-49
2022/09/24 09:30:19;;;;;;;3.28;2.55;;;;;;;13.47;90.42;98224.88;4165528;28;20310;-48
2022/09/24 09:33:01;;;;;;;2.58;2.35;;;;;;;13.42;90.06;98232.28;4138783;28;20296;-48
2022/09/24 09:35:13;;;;;;;2.40;2.17;;;;;;;13.62;90.12;98226.78;4167222;28;20291;-47
2022/09/24 09:38:09;;;;;;;6.10;5.50;;;;;;;13.80;89.97;98217.97;4157795;28;20296;-48
2022/09/24 09:40:16;;;;;;;5.65;4.45;;;;;;;13.95;90.75;98221.50;4082976;29;20238;-48
2022/09/24 09:42:26;;;;;;;4.38;3.97;;;;;;;14.08;89.74;98218.19;4141467;28;20269;-49
2022/09/24 09:44:29;;;;;;;3.63;2.45;;;;;;;13.99;88.00;98222.63;4170420;28;20196;-49
2022/09/24 09:46:40;;;;;;;3.38;2.88;;;;;;;14.00;87.65;98229.75;4156052;28;20201;-49
2022/09/24 09:48:47;;;;;;;4.22;2.40;;;;;;;13.93;88.29;98233.91;4159878;28;20575;-48
2022/09/24 09:50:58;;;;;;;2.85;2.60;;;;;;;13.95;88.15;98238.03;4157359;28;20896;-48
2022/09/24 09:53:00;;;;;;;2.67;2.45;;;;;;;13.91;87.91;98230.59;4154098;28;20273;-47
2022/09/24 09:55:04;;;;;;;3.42;2.65;;;;;;;13.88;88.67;98236.66;4159124;28;20665;-48
2022/09/24 09:57:06;;;;;;;3.67;2.80;;;;;;;13.98;88.77;98237.44;4154263;28;20197;-49
2022/09/24 09:59:20;;;;;;;3.60;2.70;;;;;;;13.97;88.25;98241.31;4155707;28;20708;-49
2022/09/24 10:01:34;;;;;;;2.60;2.40;;;;;;;14.04;88.93;98235.53;4156311;28;20237;-48